sensor_id;sensor_type;location;lat;lon;timestamp;temperature;humidity
52963;DHT22;38827;53.024;6.596;2022-08-07T00:02:12;13.20;72.30
52963;DHT22;38827;53.024;6.596;2022-08-07T00:04:38;13.20;72.40
52963;DHT22;38827;53.024;6.596;2022-08-07T00:07:05;13.10;72.20
52963;DHT22;38827;53.024;6.596;2022-08-07T00:09:30;13.10;72.30
52963;DHT22;38827;53.024;6.596;2022-08-07T00:11:56;13.10;71.90
52963;DHT22;38827;53.024;6.596;2022-08-07T00:14:23;13.00;72.20
52963;DHT22;38827;53.024;6.596;2022-08-07T00:16:49;13.00;72.40
52963;DHT22;38827;53.024;6.596;2022-08-07T00:19:14;13.00;72.30
52963;DHT22;38827;53.024;6.596;2022-08-07T00:21:41;13.00;72.30
52963;DHT22;38827;53.024;6.596;2022-08-07T00:24:07;12.90;72.50
52963;DHT22;38827;53.024;6.596;2022-08-07T00:26:32;12.90;72.60
52963;DHT22;38827;53.024;6.596;2022-08-07T00:28:58;12.90;72.60
52963;DHT22;38827;53.024;6.596;2022-08-07T00:31:24;12.80;72.60
52963;DHT22;38827;53.024;6.596;2022-08-07T00:33:50;12.80;72.70
52963;DHT22;38827;53.024;6.596;2022-08-07T00:36:16;12.80;72.50
52963;DHT22;38827;53.024;6.596;2022-08-07T00:38:41;12.80;72.30
52963;DHT22;38827;53.024;6.596;2022-08-07T00:41:07;12.70;72.20
52963;DHT22;38827;53.024;6.596;2022-08-07T00:43:33;12.60;72.50
52963;DHT22;38827;53.024;6.596;2022-08-07T00:46:00;12.60;72.70
52963;DHT22;38827;53.024;6.596;2022-08-07T00:48:30;12.60;72.80
52963;DHT22;38827;53.024;6.596;2022-08-07T00:51:01;12.50;72.80
52963;DHT22;38827;53.024;6.596;2022-08-07T00:53:49;12.50;72.80
52963;DHT22;38827;53.024;6.596;2022-08-07T00:56:34;12.50;72.30
52963;DHT22;38827;53.024;6.596;2022-08-07T00:59:03;12.40;71.90
52963;DHT22;38827;53.024;6.596;2022-08-07T01:01:30;12.20;72.30
52963;DHT22;38827;53.024;6.596;2022-08-07T01:04:04;12.10;72.60
52963;DHT22;38827;53.024;6.596;2022-08-07T01:06:52;12.10;72.80
52963;DHT22;38827;53.024;6.596;2022-08-07T01:09:45;12.00;72.80
52963;DHT22;38827;53.024;6.596;2022-08-07T01:15:33;12.00;73.30
52963;DHT22;38827;53.024;6.596;2022-08-07T01:18:05;12.00;73.30
52963;DHT22;38827;53.024;6.596;2022-08-07T01:20:33;12.00;73.30
52963;DHT22;38827;53.024;6.596;2022-08-07T01:23:33;12.00;73.40
52963;DHT22;38827;53.024;6.596;2022-08-07T01:25:59;12.00;73.50
52963;DHT22;38827;53.024;6.596;2022-08-07T01:28:25;12.00;73.70
52963;DHT22;38827;53.024;6.596;2022-08-07T01:30:52;12.00;73.50
52963;DHT22;38827;53.024;6.596;2022-08-07T01:33:18;12.00;73.10
52963;DHT22;38827;53.024;6.596;2022-08-07T01:35:45;12.00;73.60
52963;DHT22;38827;53.024;6.596;2022-08-07T01:38:10;12.10;73.60
52963;DHT22;38827;53.024;6.596;2022-08-07T01:40:37;12.10;73.50
52963;DHT22;38827;53.024;6.596;2022-08-07T01:43:05;12.10;73.50
52963;DHT22;38827;53.024;6.596;2022-08-07T01:45:31;12.10;73.40
52963;DHT22;38827;53.024;6.596;2022-08-07T01:47:58;12.10;73.30
52963;DHT22;38827;53.024;6.596;2022-08-07T01:50:25;12.10;73.20
52963;DHT22;38827;53.024;6.596;2022-08-07T01:52:53;12.10;73.10
52963;DHT22;38827;53.024;6.596;2022-08-07T01:55:27;12.10;73.00
52963;DHT22;38827;53.024;6.596;2022-08-07T01:57:56;12.10;73.10
52963;DHT22;38827;53.024;6.596;2022-08-07T02:00:26;12.10;73.00
52963;DHT22;38827;53.024;6.596;2022-08-07T02:03:00;12.00;73.10
52963;DHT22;38827;53.024;6.596;2022-08-07T02:05:32;12.00;73.20
52963;DHT22;38827;53.024;6.596;2022-08-07T02:08:08;12.00;73.20
52963;DHT22;38827;53.024;6.596;2022-08-07T02:11:01;12.00;73.30
52963;DHT22;38827;53.024;6.596;2022-08-07T02:13:35;11.90;73.40
52963;DHT22;38827;53.024;6.596;2022-08-07T02:16:11;11.90;73.40
52963;DHT22;38827;53.024;6.596;2022-08-07T02:18:38;11.90;73.50
52963;DHT22;38827;53.024;6.596;2022-08-07T02:21:30;11.90;73.70
52963;DHT22;38827;53.024;6.596;2022-08-07T02:24:03;11.80;73.90
52963;DHT22;38827;53.024;6.596;2022-08-07T02:26:34;11.80;73.90
52963;DHT22;38827;53.024;6.596;2022-08-07T02:29:05;11.80;74.10
52963;DHT22;38827;53.024;6.596;2022-08-07T02:31:31;11.80;74.30
52963;DHT22;38827;53.024;6.596;2022-08-07T02:33:59;11.70;74.30
52963;DHT22;38827;53.024;6.596;2022-08-07T02:36:26;11.70;74.30
52963;DHT22;38827;53.024;6.596;2022-08-07T02:38:55;11.70;74.50
52963;DHT22;38827;53.024;6.596;2022-08-07T02:41:22;11.70;74.60
52963;DHT22;38827;53.024;6.596;2022-08-07T02:43:49;11.60;74.90
52963;DHT22;38827;53.024;6.596;2022-08-07T02:46:18;11.70;74.90
52963;DHT22;38827;53.024;6.596;2022-08-07T02:48:45;11.60;75.00
52963;DHT22;38827;53.024;6.596;2022-08-07T02:51:14;11.60;75.00
52963;DHT22;38827;53.024;6.596;2022-08-07T02:53:43;11.60;75.00
52963;DHT22;38827;53.024;6.596;2022-08-07T02:56:13;11.60;75.00
52963;DHT22;38827;53.024;6.596;2022-08-07T02:58:40;11.60;74.90
52963;DHT22;38827;53.024;6.596;2022-08-07T03:01:06;11.60;74.90
52963;DHT22;38827;53.024;6.596;2022-08-07T03:03:33;11.50;74.40
52963;DHT22;38827;53.024;6.596;2022-08-07T03:06:00;11.50;74.70
52963;DHT22;38827;53.024;6.596;2022-08-07T03:08:28;11.50;74.90
52963;DHT22;38827;53.024;6.596;2022-08-07T03:10:57;11.60;75.10
52963;DHT22;38827;53.024;6.596;2022-08-07T03:13:26;11.60;75.20
52963;DHT22;38827;53.024;6.596;2022-08-07T03:15:52;11.60;75.20
52963;DHT22;38827;53.024;6.596;2022-08-07T03:18:18;11.50;75.20
52963;DHT22;38827;53.024;6.596;2022-08-07T03:20:45;11.50;75.20
52963;DHT22;38827;53.024;6.596;2022-08-07T03:23:11;11.50;75.10
52963;DHT22;38827;53.024;6.596;2022-08-07T03:25:44;11.50;75.10
52963;DHT22;38827;53.024;6.596;2022-08-07T03:28:16;11.50;74.90
52963;DHT22;38827;53.024;6.596;2022-08-07T03:30:50;11.50;74.90
52963;DHT22;38827;53.024;6.596;2022-08-07T03:33:37;11.40;74.90
52963;DHT22;38827;53.024;6.596;2022-08-07T03:36:03;11.40;74.90
52963;DHT22;38827;53.024;6.596;2022-08-07T03:38:33;11.30;75.00
52963;DHT22;38827;53.024;6.596;2022-08-07T03:40:59;11.30;75.10
52963;DHT22;38827;53.024;6.596;2022-08-07T03:43:26;11.30;75.00
52963;DHT22;38827;53.024;6.596;2022-08-07T03:45:54;11.20;75.20
52963;DHT22;38827;53.024;6.596;2022-08-07T03:48:22;11.20;75.20
52963;DHT22;38827;53.024;6.596;2022-08-07T03:50:48;11.20;75.30
52963;DHT22;38827;53.024;6.596;2022-08-07T03:53:17;11.20;75.30
52963;DHT22;38827;53.024;6.596;2022-08-07T03:55:43;11.20;75.30
52963;DHT22;38827;53.024;6.596;2022-08-07T03:58:10;11.10;75.50
52963;DHT22;38827;53.024;6.596;2022-08-07T04:00:37;11.20;75.60
52963;DHT22;38827;53.024;6.596;2022-08-07T04:03:04;11.10;75.20
52963;DHT22;38827;53.024;6.596;2022-08-07T04:05:30;11.10;75.50
52963;DHT22;38827;53.024;6.596;2022-08-07T04:07:58;11.10;75.40
52963;DHT22;38827;53.024;6.596;2022-08-07T04:10:24;11.10;75.40
52963;DHT22;38827;53.024;6.596;2022-08-07T04:12:53;11.10;75.30
52963;DHT22;38827;53.024;6.596;2022-08-07T04:15:20;11.10;75.30
52963;DHT22;38827;53.024;6.596;2022-08-07T04:17:58;11.10;75.20
52963;DHT22;38827;53.024;6.596;2022-08-07T04:20:28;11.10;75.00
52963;DHT22;38827;53.024;6.596;2022-08-07T04:22:57;11.10;74.90
52963;DHT22;38827;53.024;6.596;2022-08-07T04:25:24;11.10;74.70
52963;DHT22;38827;53.024;6.596;2022-08-07T04:27:51;11.00;74.70
52963;DHT22;38827;53.024;6.596;2022-08-07T04:30:17;11.00;74.80
52963;DHT22;38827;53.024;6.596;2022-08-07T04:32:54;11.00;74.80
52963;DHT22;38827;53.024;6.596;2022-08-07T04:35:20;11.00;74.80
52963;DHT22;38827;53.024;6.596;2022-08-07T04:37:49;11.00;74.80
52963;DHT22;38827;53.024;6.596;2022-08-07T04:40:14;11.00;75.00
52963;DHT22;38827;53.024;6.596;2022-08-07T04:42:41;11.00;75.00
52963;DHT22;38827;53.024;6.596;2022-08-07T04:45:11;11.00;75.20
52963;DHT22;38827;53.024;6.596;2022-08-07T04:53:38;11.10;75.30
52963;DHT22;38827;53.024;6.596;2022-08-07T05:22:26;11.70;75.00
52963;DHT22;38827;53.024;6.596;2022-08-07T05:32:17;12.10;74.80
52963;DHT22;38827;53.024;6.596;2022-08-07T05:34:47;12.20;74.50
52963;DHT22;38827;53.024;6.596;2022-08-07T05:37:14;12.40;74.40
52963;DHT22;38827;53.024;6.596;2022-08-07T05:39:43;12.60;74.30
52963;DHT22;38827;53.024;6.596;2022-08-07T05:42:10;12.70;74.20
52963;DHT22;38827;53.024;6.596;2022-08-07T05:44:36;12.90;74.10
52963;DHT22;38827;53.024;6.596;2022-08-07T05:47:03;13.00;73.80
52963;DHT22;38827;53.024;6.596;2022-08-07T05:49:31;13.20;73.40
52963;DHT22;38827;53.024;6.596;2022-08-07T05:51:58;13.40;73.00
52963;DHT22;38827;53.024;6.596;2022-08-07T05:54:23;13.50;72.80
52963;DHT22;38827;53.024;6.596;2022-08-07T05:56:50;13.70;72.40
52963;DHT22;38827;53.024;6.596;2022-08-07T05:59:22;13.80;72.00
52963;DHT22;38827;53.024;6.596;2022-08-07T06:01:56;14.00;71.60
52963;DHT22;38827;53.024;6.596;2022-08-07T06:04:23;14.20;71.30
52963;DHT22;38827;53.024;6.596;2022-08-07T06:06:49;14.30;71.10
52963;DHT22;38827;53.024;6.596;2022-08-07T06:09:19;14.50;71.00
52963;DHT22;38827;53.024;6.596;2022-08-07T06:11:48;14.60;70.80
52963;DHT22;38827;53.024;6.596;2022-08-07T06:42:51;16.50;65.20
52963;DHT22;38827;53.024;6.596;2022-08-07T06:48:32;16.90;63.60
52963;DHT22;38827;53.024;6.596;2022-08-07T06:51:06;17.10;62.80
52963;DHT22;38827;53.024;6.596;2022-08-07T06:57:28;17.40;61.60
52963;DHT22;38827;53.024;6.596;2022-08-07T07:00:27;17.50;60.60
52963;DHT22;38827;53.024;6.596;2022-08-07T07:11:10;18.00;58.80
52963;DHT22;38827;53.024;6.596;2022-08-07T07:13:42;18.10;58.60
52963;DHT22;38827;53.024;6.596;2022-08-07T07:16:35;18.20;58.10
52963;DHT22;38827;53.024;6.596;2022-08-07T07:19:03;18.40;57.70
52963;DHT22;38827;53.024;6.596;2022-08-07T07:21:37;18.50;57.50
52963;DHT22;38827;53.024;6.596;2022-08-07T07:24:04;18.70;56.90
52963;DHT22;38827;53.024;6.596;2022-08-07T07:26:31;18.80;56.90
52963;DHT22;38827;53.024;6.596;2022-08-07T07:29:03;19.00;56.40
52963;DHT22;38827;53.024;6.596;2022-08-07T07:31:36;19.10;55.50
52963;DHT22;38827;53.024;6.596;2022-08-07T07:34:08;19.20;54.90
52963;DHT22;38827;53.024;6.596;2022-08-07T07:36:37;19.40;54.70
52963;DHT22;38827;53.024;6.596;2022-08-07T07:39:04;19.60;54.30
52963;DHT22;38827;53.024;6.596;2022-08-07T07:41:32;19.70;53.30
52963;DHT22;38827;53.024;6.596;2022-08-07T07:43:59;19.80;52.30
52963;DHT22;38827;53.024;6.596;2022-08-07T07:46:30;19.90;52.10
52963;DHT22;38827;53.024;6.596;2022-08-07T07:49:02;20.00;52.90
52963;DHT22;38827;53.024;6.596;2022-08-07T07:51:29;20.20;52.30
52963;DHT22;38827;53.024;6.596;2022-08-07T07:54:46;20.30;51.60
52963;DHT22;38827;53.024;6.596;2022-08-07T07:57:23;20.50;51.50
52963;DHT22;38827;53.024;6.596;2022-08-07T07:59:56;20.60;50.90
52963;DHT22;38827;53.024;6.596;2022-08-07T08:24:06;21.70;48.00
52963;DHT22;38827;53.024;6.596;2022-08-07T08:27:10;21.80;47.40
52963;DHT22;38827;53.024;6.596;2022-08-07T08:30:07;22.00;47.10
52963;DHT22;38827;53.024;6.596;2022-08-07T08:33:00;22.20;46.90
52963;DHT22;38827;53.024;6.596;2022-08-07T08:38:04;22.40;46.30
52963;DHT22;38827;53.024;6.596;2022-08-07T08:40:40;22.60;45.60
52963;DHT22;38827;53.024;6.596;2022-08-07T08:43:32;22.90;45.30
52963;DHT22;38827;53.024;6.596;2022-08-07T08:46:22;23.00;44.90
52963;DHT22;38827;53.024;6.596;2022-08-07T08:51:34;23.20;45.00
52963;DHT22;38827;53.024;6.596;2022-08-07T08:54:17;23.40;44.30
52963;DHT22;38827;53.024;6.596;2022-08-07T08:56:48;23.50;44.00
52963;DHT22;38827;53.024;6.596;2022-08-07T08:59:46;23.60;43.40
52963;DHT22;38827;53.024;6.596;2022-08-07T09:08:22;24.30;41.30
52963;DHT22;38827;53.024;6.596;2022-08-07T09:14:43;24.50;40.70
52963;DHT22;38827;53.024;6.596;2022-08-07T09:17:36;24.90;40.40
52963;DHT22;38827;53.024;6.596;2022-08-07T09:20:29;25.60;39.70
52963;DHT22;38827;53.024;6.596;2022-08-07T09:23:16;26.50;37.80
52963;DHT22;38827;53.024;6.596;2022-08-07T09:26:26;27.20;36.40
52963;DHT22;38827;53.024;6.596;2022-08-07T09:29:02;28.00;36.20
52963;DHT22;38827;53.024;6.596;2022-08-07T09:31:42;28.80;34.40
52963;DHT22;38827;53.024;6.596;2022-08-07T09:34:26;29.30;33.80
52963;DHT22;38827;53.024;6.596;2022-08-07T09:37:13;29.30;33.50
52963;DHT22;38827;53.024;6.596;2022-08-07T09:42:51;27.50;35.20
52963;DHT22;38827;53.024;6.596;2022-08-07T09:45:36;27.20;36.00
52963;DHT22;38827;53.024;6.596;2022-08-07T09:48:26;28.00;35.10
52963;DHT22;38827;53.024;6.596;2022-08-07T09:51:12;28.40;33.00
52963;DHT22;38827;53.024;6.596;2022-08-07T09:53:42;28.30;33.60
52963;DHT22;38827;53.024;6.596;2022-08-07T10:02:46;30.20;31.20
52963;DHT22;38827;53.024;6.596;2022-08-07T10:06:11;30.70;30.40
52963;DHT22;38827;53.024;6.596;2022-08-07T10:08:51;31.30;30.20
52963;DHT22;38827;53.024;6.596;2022-08-07T10:17:26;32.60;29.40
52963;DHT22;38827;53.024;6.596;2022-08-07T10:28:20;33.50;28.70
52963;DHT22;38827;53.024;6.596;2022-08-07T10:42:31;33.90;28.30
52963;DHT22;38827;53.024;6.596;2022-08-07T10:50:34;33.90;27.90
52963;DHT22;38827;53.024;6.596;2022-08-07T11:09:21;35.40;25.80
52963;DHT22;38827;53.024;6.596;2022-08-07T11:14:40;35.20;25.70
52963;DHT22;38827;53.024;6.596;2022-08-07T11:17:18;35.30;25.20
52963;DHT22;38827;53.024;6.596;2022-08-07T12:30:27;37.40;23.90
52963;DHT22;38827;53.024;6.596;2022-08-07T12:36:36;38.10;24.00
52963;DHT22;38827;53.024;6.596;2022-08-07T12:53:59;37.90;23.00
52963;DHT22;38827;53.024;6.596;2022-08-07T12:56:41;38.30;22.90
52963;DHT22;38827;53.024;6.596;2022-08-07T12:59:38;38.30;22.40
52963;DHT22;38827;53.024;6.596;2022-08-07T13:16:21;37.50;23.40
52963;DHT22;38827;53.024;6.596;2022-08-07T13:19:33;37.30;23.70
52963;DHT22;38827;53.024;6.596;2022-08-07T13:26:10;38.20;23.10
52963;DHT22;38827;53.024;6.596;2022-08-07T13:46:06;31.90;28.50
52963;DHT22;38827;53.024;6.596;2022-08-07T13:49:07;31.10;29.40
52963;DHT22;38827;53.024;6.596;2022-08-07T13:51:35;30.60;29.70
52963;DHT22;38827;53.024;6.596;2022-08-07T13:54:12;30.00;30.40
52963;DHT22;38827;53.024;6.596;2022-08-07T13:56:42;29.70;30.50
52963;DHT22;38827;53.024;6.596;2022-08-07T13:59:18;29.80;30.80
52963;DHT22;38827;53.024;6.596;2022-08-07T14:04:24;29.80;32.40
52963;DHT22;38827;53.024;6.596;2022-08-07T14:06:52;29.10;33.60
52963;DHT22;38827;53.024;6.596;2022-08-07T14:09:23;28.40;34.60
52963;DHT22;38827;53.024;6.596;2022-08-07T14:11:56;28.40;34.60
52963;DHT22;38827;53.024;6.596;2022-08-07T14:14:29;28.90;33.90
52963;DHT22;38827;53.024;6.596;2022-08-07T14:17:00;29.30;33.30
52963;DHT22;38827;53.024;6.596;2022-08-07T14:19:37;29.60;32.90
52963;DHT22;38827;53.024;6.596;2022-08-07T14:22:06;29.70;32.50
52963;DHT22;38827;53.024;6.596;2022-08-07T14:24:45;29.70;32.30
52963;DHT22;38827;53.024;6.596;2022-08-07T14:27:13;29.40;32.40
52963;DHT22;38827;53.024;6.596;2022-08-07T14:29:46;29.20;33.20
52963;DHT22;38827;53.024;6.596;2022-08-07T14:32:12;28.80;33.50
52963;DHT22;38827;53.024;6.596;2022-08-07T14:34:42;28.30;34.50
52963;DHT22;38827;53.024;6.596;2022-08-07T14:37:10;28.00;34.20
52963;DHT22;38827;53.024;6.596;2022-08-07T14:39:39;27.80;34.90
52963;DHT22;38827;53.024;6.596;2022-08-07T14:42:08;27.60;35.20
52963;DHT22;38827;53.024;6.596;2022-08-07T14:44:43;27.30;35.70
52963;DHT22;38827;53.024;6.596;2022-08-07T14:47:11;26.90;36.40
52963;DHT22;38827;53.024;6.596;2022-08-07T14:50:04;26.70;36.90
52963;DHT22;38827;53.024;6.596;2022-08-07T14:52:30;26.50;37.20
52963;DHT22;38827;53.024;6.596;2022-08-07T14:55:00;26.40;37.50
52963;DHT22;38827;53.024;6.596;2022-08-07T14:57:27;26.30;37.80
52963;DHT22;38827;53.024;6.596;2022-08-07T14:59:54;26.10;37.90
52963;DHT22;38827;53.024;6.596;2022-08-07T15:02:23;25.90;38.10
52963;DHT22;38827;53.024;6.596;2022-08-07T15:04:53;25.70;38.50
52963;DHT22;38827;53.024;6.596;2022-08-07T15:07:22;25.50;38.40
52963;DHT22;38827;53.024;6.596;2022-08-07T15:09:52;25.50;38.80
52963;DHT22;38827;53.024;6.596;2022-08-07T15:12:23;25.60;38.20
52963;DHT22;38827;53.024;6.596;2022-08-07T15:15:02;25.60;38.60
52963;DHT22;38827;53.024;6.596;2022-08-07T15:17:31;25.60;38.50
52963;DHT22;38827;53.024;6.596;2022-08-07T15:20:05;25.60;38.50
52963;DHT22;38827;53.024;6.596;2022-08-07T15:22:45;25.60;38.40
52963;DHT22;38827;53.024;6.596;2022-08-07T15:25:15;25.60;38.40
52963;DHT22;38827;53.024;6.596;2022-08-07T15:27:44;25.60;38.10
52963;DHT22;38827;53.024;6.596;2022-08-07T15:30:12;25.60;38.40
52963;DHT22;38827;53.024;6.596;2022-08-07T15:32:46;25.60;38.60
52963;DHT22;38827;53.024;6.596;2022-08-07T15:35:18;25.70;37.90
52963;DHT22;38827;53.024;6.596;2022-08-07T15:37:56;25.60;38.50
52963;DHT22;38827;53.024;6.596;2022-08-07T15:40:24;25.70;38.40
52963;DHT22;38827;53.024;6.596;2022-08-07T15:45:40;25.60;38.70
52963;DHT22;38827;53.024;6.596;2022-08-07T15:50:38;25.40;39.10
52963;DHT22;38827;53.024;6.596;2022-08-07T15:53:10;25.30;39.40
52963;DHT22;38827;53.024;6.596;2022-08-07T15:55:41;25.20;39.70
52963;DHT22;38827;53.024;6.596;2022-08-07T15:58:10;25.20;40.00
52963;DHT22;38827;53.024;6.596;2022-08-07T16:00:38;25.20;39.80
52963;DHT22;38827;53.024;6.596;2022-08-07T16:03:09;25.10;40.00
52963;DHT22;38827;53.024;6.596;2022-08-07T16:05:37;25.10;39.70
52963;DHT22;38827;53.024;6.596;2022-08-07T16:08:10;25.00;39.90
52963;DHT22;38827;53.024;6.596;2022-08-07T16:10:37;24.90;39.90
52963;DHT22;38827;53.024;6.596;2022-08-07T16:13:36;24.70;40.60
52963;DHT22;38827;53.024;6.596;2022-08-07T16:19:21;24.60;40.80
52963;DHT22;38827;53.024;6.596;2022-08-07T16:22:07;24.50;40.50
52963;DHT22;38827;53.024;6.596;2022-08-07T16:24:56;24.50;40.80
52963;DHT22;38827;53.024;6.596;2022-08-07T16:27:28;24.40;41.00
52963;DHT22;38827;53.024;6.596;2022-08-07T16:32:42;24.20;41.50
52963;DHT22;38827;53.024;6.596;2022-08-07T16:35:25;24.20;41.30
52963;DHT22;38827;53.024;6.596;2022-08-07T16:44:15;24.00;41.80
52963;DHT22;38827;53.024;6.596;2022-08-07T16:47:13;23.90;41.80
52963;DHT22;38827;53.024;6.596;2022-08-07T17:07:16;24.10;42.10
52963;DHT22;38827;53.024;6.596;2022-08-07T17:09:58;24.10;40.00
52963;DHT22;38827;53.024;6.596;2022-08-07T17:12:45;24.00;41.50
52963;DHT22;38827;53.024;6.596;2022-08-07T17:15:20;24.00;41.30
52963;DHT22;38827;53.024;6.596;2022-08-07T17:17:51;24.00;41.90
52963;DHT22;38827;53.024;6.596;2022-08-07T17:20:32;23.90;41.60
52963;DHT22;38827;53.024;6.596;2022-08-07T17:31:17;23.60;42.70
52963;DHT22;38827;53.024;6.596;2022-08-07T17:33:53;23.40;42.70
52963;DHT22;38827;53.024;6.596;2022-08-07T17:36:27;23.30;43.50
52963;DHT22;38827;53.024;6.596;2022-08-07T17:39:07;23.20;43.90
52963;DHT22;38827;53.024;6.596;2022-08-07T17:41:52;23.20;44.40
52963;DHT22;38827;53.024;6.596;2022-08-07T17:44:23;23.10;45.60
52963;DHT22;38827;53.024;6.596;2022-08-07T17:47:01;22.90;45.30
52963;DHT22;38827;53.024;6.596;2022-08-07T17:49:47;22.90;45.50
52963;DHT22;38827;53.024;6.596;2022-08-07T17:52:39;22.80;46.70
52963;DHT22;38827;53.024;6.596;2022-08-07T17:55:11;22.80;47.00
52963;DHT22;38827;53.024;6.596;2022-08-07T17:57:57;22.70;46.90
52963;DHT22;38827;53.024;6.596;2022-08-07T18:00:26;22.80;47.80
52963;DHT22;38827;53.024;6.596;2022-08-07T18:05:52;22.60;48.00
52963;DHT22;38827;53.024;6.596;2022-08-07T18:16:35;22.50;48.90
52963;DHT22;38827;53.024;6.596;2022-08-07T18:21:49;22.40;49.50
52963;DHT22;38827;53.024;6.596;2022-08-07T18:24:46;22.40;49.70
52963;DHT22;38827;53.024;6.596;2022-08-07T18:27:40;22.40;49.80
52963;DHT22;38827;53.024;6.596;2022-08-07T18:30:05;22.30;50.10
52963;DHT22;38827;53.024;6.596;2022-08-07T18:41:21;22.20;50.70
52963;DHT22;38827;53.024;6.596;2022-08-07T18:46:55;22.10;50.90
52963;DHT22;38827;53.024;6.596;2022-08-07T18:50:07;22.10;51.40
52963;DHT22;38827;53.024;6.596;2022-08-07T18:53:00;22.00;51.70
52963;DHT22;38827;53.024;6.596;2022-08-07T18:58:50;22.00;52.00
52963;DHT22;38827;53.024;6.596;2022-08-07T19:04:20;21.90;51.90
52963;DHT22;38827;53.024;6.596;2022-08-07T19:06:52;21.90;51.60
52963;DHT22;38827;53.024;6.596;2022-08-07T19:09:41;21.90;51.90
52963;DHT22;38827;53.024;6.596;2022-08-07T19:12:22;21.90;51.80
52963;DHT22;38827;53.024;6.596;2022-08-07T19:15:14;21.90;51.70
52963;DHT22;38827;53.024;6.596;2022-08-07T19:20:43;21.80;52.00
52963;DHT22;38827;53.024;6.596;2022-08-07T19:23:26;21.70;52.30
52963;DHT22;38827;53.024;6.596;2022-08-07T19:25:55;21.60;52.20
52963;DHT22;38827;53.024;6.596;2022-08-07T19:28:33;21.60;52.40
52963;DHT22;38827;53.024;6.596;2022-08-07T19:31:18;21.60;52.30
52963;DHT22;38827;53.024;6.596;2022-08-07T19:33:47;21.50;52.40
52963;DHT22;38827;53.024;6.596;2022-08-07T19:36:17;21.50;52.70
52963;DHT22;38827;53.024;6.596;2022-08-07T19:38:49;21.40;52.70
52963;DHT22;38827;53.024;6.596;2022-08-07T19:41:20;21.40;52.80
52963;DHT22;38827;53.024;6.596;2022-08-07T19:43:47;21.40;52.90
52963;DHT22;38827;53.024;6.596;2022-08-07T19:46:15;21.30;53.10
52963;DHT22;38827;53.024;6.596;2022-08-07T19:48:50;21.30;53.10
52963;DHT22;38827;53.024;6.596;2022-08-07T19:51:22;21.30;53.00
52963;DHT22;38827;53.024;6.596;2022-08-07T19:53:54;21.30;52.90
52963;DHT22;38827;53.024;6.596;2022-08-07T19:56:26;21.20;53.00
52963;DHT22;38827;53.024;6.596;2022-08-07T19:58:55;21.10;53.10
52963;DHT22;38827;53.024;6.596;2022-08-07T20:01:21;21.20;53.40
52963;DHT22;38827;53.024;6.596;2022-08-07T20:03:48;21.10;53.60
52963;DHT22;38827;53.024;6.596;2022-08-07T20:06:16;21.10;53.70
52963;DHT22;38827;53.024;6.596;2022-08-07T20:08:47;21.20;53.80
52963;DHT22;38827;53.024;6.596;2022-08-07T20:11:15;21.30;53.70
52963;DHT22;38827;53.024;6.596;2022-08-07T20:13:50;21.30;53.30
52963;DHT22;38827;53.024;6.596;2022-08-07T20:16:27;21.30;53.50
52963;DHT22;38827;53.024;6.596;2022-08-07T20:18:57;21.20;53.60
52963;DHT22;38827;53.024;6.596;2022-08-07T20:21:23;21.20;53.50
52963;DHT22;38827;53.024;6.596;2022-08-07T20:23:55;21.10;53.60
52963;DHT22;38827;53.024;6.596;2022-08-07T20:26:25;21.10;53.90
52963;DHT22;38827;53.024;6.596;2022-08-07T20:28:52;21.00;54.20
52963;DHT22;38827;53.024;6.596;2022-08-07T20:31:20;21.00;53.90
52963;DHT22;38827;53.024;6.596;2022-08-07T20:33:50;20.90;54.00
52963;DHT22;38827;53.024;6.596;2022-08-07T20:36:17;20.70;54.40
52963;DHT22;38827;53.024;6.596;2022-08-07T20:38:50;20.40;55.10
52963;DHT22;38827;53.024;6.596;2022-08-07T20:41:22;20.10;55.90
52963;DHT22;38827;53.024;6.596;2022-08-07T20:43:51;19.80;56.70
52963;DHT22;38827;53.024;6.596;2022-08-07T20:46:20;19.70;57.40
52963;DHT22;38827;53.024;6.596;2022-08-07T20:48:52;19.50;57.90
52963;DHT22;38827;53.024;6.596;2022-08-07T20:51:26;19.40;58.30
52963;DHT22;38827;53.024;6.596;2022-08-07T20:53:53;19.40;58.40
52963;DHT22;38827;53.024;6.596;2022-08-07T20:56:29;19.50;58.50
52963;DHT22;38827;53.024;6.596;2022-08-07T20:58:59;19.50;58.10
52963;DHT22;38827;53.024;6.596;2022-08-07T21:01:27;19.50;58.30
52963;DHT22;38827;53.024;6.596;2022-08-07T21:03:58;19.40;58.70
52963;DHT22;38827;53.024;6.596;2022-08-07T21:06:25;19.50;58.70
52963;DHT22;38827;53.024;6.596;2022-08-07T21:09:01;19.50;58.20
52963;DHT22;38827;53.024;6.596;2022-08-07T21:11:30;19.40;58.30
52963;DHT22;38827;53.024;6.596;2022-08-07T21:14:03;19.00;59.20
52963;DHT22;38827;53.024;6.596;2022-08-07T21:16:35;18.80;60.00
52963;DHT22;38827;53.024;6.596;2022-08-07T21:19:02;18.60;60.70
52963;DHT22;38827;53.024;6.596;2022-08-07T21:21:30;18.60;61.00
52963;DHT22;38827;53.024;6.596;2022-08-07T21:24:10;18.50;61.10
52963;DHT22;38827;53.024;6.596;2022-08-07T21:27:05;18.50;61.00
52963;DHT22;38827;53.024;6.596;2022-08-07T21:32:36;18.10;61.70
52963;DHT22;38827;53.024;6.596;2022-08-07T21:37:35;17.70;63.10
52963;DHT22;38827;53.024;6.596;2022-08-07T21:40:09;17.70;63.50
52963;DHT22;38827;53.024;6.596;2022-08-07T21:42:49;17.60;64.00
52963;DHT22;38827;53.024;6.596;2022-08-07T21:45:41;17.50;64.20
52963;DHT22;38827;53.024;6.596;2022-08-07T21:48:24;17.40;64.30
52963;DHT22;38827;53.024;6.596;2022-08-07T21:50:58;17.30;64.50
52963;DHT22;38827;53.024;6.596;2022-08-07T21:53:41;17.20;65.30
52963;DHT22;38827;53.024;6.596;2022-08-07T21:56:35;17.00;65.60
52963;DHT22;38827;53.024;6.596;2022-08-07T21:59:07;17.00;65.90
52963;DHT22;38827;53.024;6.596;2022-08-07T22:04:14;16.90;66.00
52963;DHT22;38827;53.024;6.596;2022-08-07T22:09:34;16.60;66.90
52963;DHT22;38827;53.024;6.596;2022-08-07T22:12:10;16.60;68.10
52963;DHT22;38827;53.024;6.596;2022-08-07T22:14:45;17.10;67.40
52963;DHT22;38827;53.024;6.596;2022-08-07T22:17:15;17.60;66.80
52963;DHT22;38827;53.024;6.596;2022-08-07T22:22:40;18.50;64.10
52963;DHT22;38827;53.024;6.596;2022-08-07T22:25:25;18.80;63.20
52963;DHT22;38827;53.024;6.596;2022-08-07T22:28:05;19.00;62.00
52963;DHT22;38827;53.024;6.596;2022-08-07T22:31:17;19.20;61.80
52963;DHT22;38827;53.024;6.596;2022-08-07T22:33:47;19.40;61.80
52963;DHT22;38827;53.024;6.596;2022-08-07T22:36:34;19.60;61.30
52963;DHT22;38827;53.024;6.596;2022-08-07T22:41:41;19.90;59.80
52963;DHT22;38827;53.024;6.596;2022-08-07T22:44:15;20.00;59.50
52963;DHT22;38827;53.024;6.596;2022-08-07T22:47:00;20.10;59.10
52963;DHT22;38827;53.024;6.596;2022-08-07T22:49:36;20.30;58.80
52963;DHT22;38827;53.024;6.596;2022-08-07T23:01:22;20.40;57.40
52963;DHT22;38827;53.024;6.596;2022-08-07T23:04:02;20.30;57.90
52963;DHT22;38827;53.024;6.596;2022-08-07T23:06:58;20.30;58.10